Terminal Aerodrome Forecast
Issued by NWS

Home | Current Version | Previous Version | Text Only | Print | Product List | Glossary On
Versions: 1 2 3 4 5 6 7 8 9 10 11 12
000
FTUS45 KRIW 041120
TAFCOD
TAF
KCOD 041120Z 0412/0512 22007KT P6SM FEW120
     FM041900 06009KT P6SM FEW070 SCT100
     FM050200 34007KT P6SM FEW070 SCT100
     FM050800 36010G18KT P6SM VCSH SCT070 BKN100
      AMD LTD TO CLD VIS AND WIND=

USA.gov is the U.S. government's official web portal to all federal, state and local government web resources and services.